createdAt,value
2022-11-28T00:01:25.764Z,5.88
2022-11-28T00:03:53.742Z,5.94
2022-11-28T00:06:21.912Z,5.92
2022-11-28T00:08:49.880Z,5.83
2022-11-28T00:11:19.316Z,5.82
2022-11-28T00:13:47.578Z,5.82
2022-11-28T00:16:16.542Z,5.84
2022-11-28T00:18:44.930Z,5.82
2022-11-28T00:21:13.781Z,5.81
2022-11-28T00:23:41.962Z,5.76
2022-11-28T00:26:10.776Z,5.85
2022-11-28T00:28:40.127Z,5.91
2022-11-28T00:31:14.103Z,5.85
2022-11-28T00:33:42.468Z,5.82
2022-11-28T00:36:11.238Z,5.84
2022-11-28T00:38:39.257Z,5.79
2022-11-28T00:41:08.130Z,5.88
2022-11-28T00:43:36.046Z,5.92
2022-11-28T00:46:05.683Z,5.91
2022-11-28T00:48:33.963Z,5.88
2022-11-28T00:51:05.971Z,5.91
2022-11-28T00:53:33.972Z,5.94
2022-11-28T00:56:01.782Z,5.96
2022-11-28T00:58:29.607Z,5.94
2022-11-28T01:00:57.549Z,5.97
2022-11-28T01:03:26.804Z,6.02
2022-11-28T01:05:54.883Z,6.00
2022-11-28T01:08:22.859Z,6.00
2022-11-28T01:10:50.649Z,5.98
2022-11-28T01:13:18.585Z,6.02
2022-11-28T01:15:46.585Z,5.98
2022-11-28T01:18:14.705Z,5.94
2022-11-28T01:20:43.856Z,5.92
2022-11-28T01:23:11.724Z,6.01
2022-11-28T01:25:39.753Z,5.99
2022-11-28T01:28:07.573Z,5.98
2022-11-28T01:30:35.644Z,5.93
2022-11-28T01:33:03.523Z,5.91
2022-11-28T01:35:31.342Z,5.96
2022-11-28T01:38:01.632Z,6.03
2022-11-28T01:40:29.515Z,6.05
2022-11-28T01:42:57.569Z,6.03
2022-11-28T01:45:26.326Z,6.06
2022-11-28T01:47:57.411Z,6.01
2022-11-28T01:50:25.938Z,6.07
2022-11-28T01:52:56.536Z,6.00
2022-11-28T01:55:27.574Z,6.00
2022-11-28T01:57:56.195Z,6.03
2022-11-28T02:00:24.195Z,5.98
2022-11-28T02:02:53.737Z,6.09
2022-11-28T02:05:22.635Z,6.12
2022-11-28T02:07:51.234Z,6.12
2022-11-28T02:10:21.113Z,6.05
2022-11-28T02:12:58.671Z,6.07
2022-11-28T02:15:34.775Z,6.16
2022-11-28T02:18:09.863Z,6.18
2022-11-28T02:20:50.203Z,6.15
2022-11-28T02:23:22.223Z,6.14
2022-11-28T02:26:09.639Z,6.16
2022-11-28T02:29:00.128Z,6.20
2022-11-28T02:31:39.106Z,6.18
2022-11-28T02:34:10.987Z,6.21
2022-11-28T02:36:45.102Z,6.21
2022-11-28T02:39:15.832Z,6.24
2022-11-28T02:41:45.953Z,6.11
2022-11-28T02:44:16.275Z,6.12
2022-11-28T02:46:50.140Z,6.18
2022-11-28T02:49:22.956Z,6.15
2022-11-28T02:51:53.881Z,6.15
2022-11-28T02:54:22.687Z,6.11
2022-11-28T02:56:51.798Z,6.10
2022-11-28T02:59:30.708Z,6.09
2022-11-28T03:01:58.984Z,6.05
2022-11-28T03:04:31.659Z,6.09
2022-11-28T03:07:03.082Z,6.04
2022-11-28T03:09:39.231Z,6.11
2022-11-28T03:12:14.372Z,6.09
2022-11-28T03:14:46.805Z,6.04
2022-11-28T03:17:19.709Z,5.99
2022-11-28T03:19:56.033Z,6.05
2022-11-28T03:22:44.575Z,5.99
2022-11-28T03:25:18.664Z,5.94
2022-11-28T03:27:48.051Z,6.07
2022-11-28T03:30:20.473Z,6.11
2022-11-28T03:32:51.150Z,6.08
2022-11-28T03:35:23.341Z,6.13
2022-11-28T03:37:54.132Z,6.09
2022-11-28T03:40:24.614Z,6.06
2022-11-28T03:42:55.377Z,6.12
2022-11-28T03:45:25.283Z,6.13
2022-11-28T03:47:56.560Z,6.09
2022-11-28T03:50:28.505Z,6.16
2022-11-28T03:52:59.935Z,6.12
2022-11-28T03:55:31.226Z,6.14
2022-11-28T03:58:01.714Z,6.13
2022-11-28T04:00:29.824Z,6.10
2022-11-28T04:03:06.652Z,6.10
2022-11-28T04:05:42.788Z,6.09
2022-11-28T04:08:15.190Z,6.11
2022-11-28T04:10:44.658Z,6.12
2022-11-28T04:13:16.520Z,6.07
2022-11-28T04:15:47.069Z,6.04
2022-11-28T04:18:21.732Z,5.99
2022-11-28T04:20:54.475Z,5.99
2022-11-28T04:23:22.952Z,5.98
2022-11-28T04:25:53.223Z,5.96
2022-11-28T04:28:23.163Z,5.93
2022-11-28T04:30:51.886Z,5.93
2022-11-28T04:33:21.380Z,5.87
2022-11-28T04:35:54.009Z,5.99
2022-11-28T04:38:24.650Z,5.94
2022-11-28T04:40:53.932Z,5.86
2022-11-28T04:43:24.988Z,5.86
2022-11-28T04:45:55.672Z,5.78
2022-11-28T04:48:23.974Z,5.79
2022-11-28T04:50:54.903Z,5.88
2022-11-28T04:53:28.271Z,5.84
2022-11-28T04:56:01.265Z,5.81
2022-11-28T04:58:33.816Z,5.77
2022-11-28T05:01:04.560Z,5.73
2022-11-28T05:03:32.679Z,5.78
2022-11-28T05:06:00.517Z,5.69
2022-11-28T05:08:29.646Z,5.68
2022-11-28T05:10:57.584Z,5.71
2022-11-28T05:13:25.480Z,5.74
2022-11-28T05:15:53.397Z,5.79
2022-11-28T05:18:21.227Z,5.75
2022-11-28T05:20:49.061Z,5.69
2022-11-28T05:23:16.965Z,5.80
2022-11-28T05:25:46.230Z,5.74
2022-11-28T05:28:13.951Z,5.68
2022-11-28T05:30:41.741Z,5.66
2022-11-28T05:33:09.600Z,5.67
2022-11-28T05:35:39.836Z,5.65
2022-11-28T05:38:13.253Z,5.70
2022-11-28T05:40:44.236Z,5.75
2022-11-28T05:43:13.460Z,5.81
2022-11-28T05:45:41.536Z,5.91
2022-11-28T05:48:09.381Z,5.94
2022-11-28T05:50:40.144Z,5.83
2022-11-28T05:53:08.386Z,5.83
2022-11-28T05:55:37.891Z,5.90
2022-11-28T05:58:05.754Z,5.90
2022-11-28T06:00:34.892Z,5.87
2022-11-28T06:03:02.682Z,5.89
2022-11-28T06:05:41.667Z,5.98
2022-11-28T06:08:11.752Z,6.06
2022-11-28T06:10:39.698Z,5.99
2022-11-28T06:13:08.733Z,6.02
2022-11-28T06:15:38.727Z,5.94
2022-11-28T06:18:06.621Z,5.98
2022-11-28T06:20:35.769Z,6.08
2022-11-28T06:23:04.878Z,6.06
2022-11-28T06:25:32.690Z,5.96
2022-11-28T06:28:00.468Z,5.94
2022-11-28T06:30:28.259Z,5.91
2022-11-28T06:32:57.605Z,5.98
2022-11-28T06:35:25.472Z,5.97
2022-11-28T06:37:53.290Z,5.96
2022-11-28T06:40:22.536Z,6.05
2022-11-28T06:42:51.191Z,6.16
2022-11-28T06:45:19.130Z,6.01
2022-11-28T06:47:47.231Z,5.98
2022-11-28T06:50:16.713Z,6.03
2022-11-28T06:52:44.547Z,5.95
2022-11-28T06:55:12.332Z,5.99
2022-11-28T06:57:40.355Z,6.11
2022-11-28T07:00:08.917Z,6.02
2022-11-28T07:02:36.884Z,6.02
2022-11-28T07:05:04.918Z,6.10
2022-11-28T07:07:41.758Z,6.11
2022-11-28T07:10:21.036Z,6.11
2022-11-28T07:12:48.877Z,6.13
2022-11-28T07:15:16.743Z,6.21
2022-11-28T07:17:44.553Z,6.27
2022-11-28T07:20:12.788Z,6.47
2022-11-28T07:22:42.972Z,6.48
2022-11-28T07:25:11.032Z,6.61
2022-11-28T07:27:38.907Z,6.61
2022-11-28T07:30:07.567Z,6.63
2022-11-28T07:32:35.505Z,6.65
2022-11-28T07:35:04.508Z,6.66
2022-11-28T07:37:32.320Z,6.66
2022-11-28T07:40:01.444Z,6.69
2022-11-28T07:42:29.303Z,6.83
2022-11-28T07:44:57.200Z,6.80
2022-11-28T07:47:25.667Z,6.78
2022-11-28T07:49:54.238Z,6.85
2022-11-28T07:52:22.645Z,6.87
2022-11-28T07:54:50.976Z,6.94
2022-11-28T07:57:20.180Z,6.82
2022-11-28T07:59:48.302Z,6.97
2022-11-28T08:02:16.139Z,6.89
2022-11-28T08:04:48.570Z,6.95
2022-11-28T08:07:20.047Z,6.98
2022-11-28T08:09:47.919Z,6.89
2022-11-28T08:12:15.843Z,6.98
2022-11-28T08:14:45.315Z,7.04
2022-11-28T08:17:13.204Z,7.01
2022-11-28T08:19:41.192Z,7.05
2022-11-28T08:22:09.061Z,7.12
2022-11-28T08:24:37.305Z,7.12
2022-11-28T08:27:05.156Z,7.19
2022-11-28T08:29:33.165Z,7.29
2022-11-28T08:32:05.244Z,7.31
2022-11-28T08:34:34.513Z,7.28
2022-11-28T08:37:02.292Z,7.32
2022-11-28T08:39:30.205Z,7.31
2022-11-28T08:41:58.849Z,7.41
2022-11-28T08:44:27.376Z,7.42
2022-11-28T08:46:55.713Z,7.44
2022-11-28T08:49:24.866Z,7.51
2022-11-28T08:51:52.884Z,7.52
2022-11-28T08:54:20.820Z,7.46
2022-11-28T08:56:48.700Z,7.56
2022-11-28T08:59:20.004Z,7.49
2022-11-28T09:01:56.188Z,7.51
2022-11-28T09:04:28.155Z,7.49
2022-11-28T09:06:56.003Z,7.56
2022-11-28T09:09:23.937Z,7.47
2022-11-28T09:11:51.735Z,7.49
2022-11-28T09:14:19.552Z,7.51
2022-11-28T09:16:47.590Z,7.50
2022-11-28T09:19:15.457Z,7.63
2022-11-28T09:21:44.603Z,7.56
2022-11-28T09:24:13.913Z,7.61
2022-11-28T09:26:44.233Z,7.66
2022-11-28T09:29:12.508Z,7.62
2022-11-28T09:31:45.821Z,7.63
2022-11-28T09:34:15.528Z,7.67
2022-11-28T09:36:44.722Z,7.78
2022-11-28T09:39:12.540Z,7.89
2022-11-28T09:41:45.160Z,7.83
2022-11-28T09:44:17.055Z,7.91
2022-11-28T09:46:45.736Z,7.88
2022-11-28T09:49:24.869Z,7.86
2022-11-28T09:51:57.788Z,7.92
2022-11-28T09:54:30.488Z,7.82
2022-11-28T09:56:59.816Z,7.73
2022-11-28T09:59:29.032Z,7.72
2022-11-28T10:02:01.510Z,7.56
2022-11-28T10:04:34.366Z,7.45
2022-11-28T10:07:09.522Z,7.37
2022-11-28T10:09:42.240Z,7.36
2022-11-28T10:12:20.385Z,7.31
2022-11-28T10:15:03.593Z,7.33
2022-11-28T10:17:37.791Z,7.31
2022-11-28T10:20:06.838Z,7.41
2022-11-28T10:22:40.346Z,7.37
2022-11-28T10:25:13.484Z,7.34
2022-11-28T10:27:41.997Z,7.36
2022-11-28T10:30:16.552Z,7.41
2022-11-28T10:32:46.262Z,7.46
2022-11-28T10:35:23.862Z,7.50
2022-11-28T10:37:56.116Z,7.51
2022-11-28T10:40:26.852Z,7.57
2022-11-28T10:42:57.729Z,7.56
2022-11-28T10:45:31.761Z,7.53
2022-11-28T10:48:37.584Z,7.64
2022-11-28T10:51:02.787Z,7.59
2022-11-28T10:53:39.147Z,7.74
2022-11-28T10:56:13.930Z,7.73
2022-11-28T10:58:47.998Z,7.72
2022-11-28T11:01:17.674Z,7.73
2022-11-28T11:03:45.672Z,7.68
2022-11-28T11:06:13.480Z,7.67
2022-11-28T11:08:42.784Z,7.72
2022-11-28T11:11:19.353Z,7.69
2022-11-28T11:13:57.925Z,7.66
2022-11-28T11:16:25.897Z,7.66
2022-11-28T11:18:54.703Z,7.72
2022-11-28T11:21:37.189Z,7.71
2022-11-28T11:24:13.372Z,7.66
2022-11-28T11:26:43.448Z,7.69
2022-11-28T11:29:21.238Z,7.74
2022-11-28T11:31:51.873Z,7.64
2022-11-28T11:34:20.901Z,7.68
2022-11-28T11:36:49.290Z,7.69
2022-11-28T11:39:20.947Z,7.59
2022-11-28T11:41:49.718Z,7.59
2022-11-28T11:44:26.521Z,7.53
2022-11-28T11:46:55.148Z,7.62
2022-11-28T11:49:28.918Z,7.61
2022-11-28T11:51:57.636Z,7.61
2022-11-28T11:54:26.925Z,7.56
2022-11-28T11:57:11.199Z,7.43
2022-11-28T11:59:45.237Z,7.39
2022-11-28T12:02:20.511Z,7.31
2022-11-28T12:04:55.320Z,7.34
2022-11-28T12:07:47.424Z,7.37
2022-11-28T12:10:19.069Z,7.33
2022-11-28T12:12:47.179Z,7.32
2022-11-28T12:15:17.815Z,7.35
2022-11-28T12:17:58.362Z,7.31
2022-11-28T12:20:36.940Z,7.30
2022-11-28T12:23:17.135Z,7.19
2022-11-28T12:25:53.670Z,7.28
2022-11-28T12:28:29.254Z,7.25
2022-11-28T12:31:04.022Z,7.28
2022-11-28T12:33:40.063Z,7.18
2022-11-28T12:36:15.916Z,7.12
2022-11-28T12:38:52.177Z,7.05
2022-11-28T12:41:32.620Z,7.09
2022-11-28T12:44:08.370Z,7.12
2022-11-28T12:46:42.357Z,7.09
2022-11-28T12:49:16.896Z,7.10
2022-11-28T12:51:53.007Z,7.16
2022-11-28T12:54:30.713Z,7.10
2022-11-28T12:57:05.484Z,7.20
2022-11-28T12:59:35.902Z,7.14
2022-11-28T13:02:19.365Z,7.17
2022-11-28T13:04:57.142Z,7.13
2022-11-28T13:07:30.138Z,7.09
2022-11-28T13:10:02.487Z,7.08
2022-11-28T13:12:40.911Z,6.98
2022-11-28T13:15:14.185Z,7.00
2022-11-28T13:17:45.396Z,7.04
2022-11-28T13:20:17.346Z,6.98
2022-11-28T13:22:53.324Z,7.05
2022-11-28T13:25:25.071Z,7.17
2022-11-28T13:27:57.314Z,7.10
2022-11-28T13:30:26.693Z,7.06
2022-11-28T13:32:59.961Z,7.10
2022-11-28T13:35:29.050Z,7.20
2022-11-28T13:40:50.990Z,7.33
2022-11-28T13:43:25.349Z,7.36
2022-11-28T13:45:53.797Z,7.23
2022-11-28T13:49:12.536Z,7.21
2022-11-28T13:51:32.124Z,7.23
2022-11-28T13:54:19.706Z,7.21
2022-11-28T13:56:48.524Z,7.21
2022-11-28T13:59:21.223Z,7.14
2022-11-28T14:01:54.920Z,7.21
2022-11-28T14:04:24.064Z,7.16
2022-11-28T14:06:54.462Z,7.17
2022-11-28T14:09:31.427Z,7.10
2022-11-28T14:12:07.881Z,7.10
2022-11-28T14:14:46.202Z,7.17
2022-11-28T14:17:24.289Z,7.24
2022-11-28T14:19:59.700Z,7.15
2022-11-28T14:22:38.926Z,7.15
2022-11-28T14:25:10.646Z,7.10
2022-11-28T14:27:40.638Z,7.07
2022-11-28T14:30:24.025Z,7.22
2022-11-28T14:32:56.827Z,7.24
2022-11-28T14:35:43.605Z,7.15
2022-11-28T14:38:26.458Z,7.04
2022-11-28T14:41:03.256Z,7.03
2022-11-28T14:43:31.966Z,7.03
2022-11-28T14:46:14.683Z,7.09
2022-11-28T14:49:04.102Z,7.09
2022-11-28T14:51:47.009Z,7.00
2022-11-28T14:54:21.926Z,7.04
2022-11-28T14:56:52.960Z,7.03
2022-11-28T14:59:27.788Z,6.94
2022-11-28T15:01:59.688Z,6.95
2022-11-28T15:04:44.531Z,6.96
2022-11-28T15:07:23.946Z,6.97
2022-11-28T15:09:59.850Z,6.90
2022-11-28T15:12:34.404Z,6.94
2022-11-28T15:15:03.909Z,6.94
2022-11-28T15:17:33.932Z,6.95
2022-11-28T15:20:04.192Z,7.00
2022-11-28T15:22:33.353Z,6.91
2022-11-28T15:25:18.798Z,6.94
2022-11-28T15:27:46.786Z,6.93
2022-11-28T15:30:18.692Z,6.90
2022-11-28T15:32:47.247Z,6.87
2022-11-28T15:35:17.596Z,6.86
2022-11-28T15:37:50.452Z,6.91
2022-11-28T15:40:21.494Z,6.87
2022-11-28T15:42:50.071Z,6.90
2022-11-28T15:45:23.156Z,6.89
2022-11-28T15:47:51.540Z,6.91
2022-11-28T15:50:20.646Z,6.88
2022-11-28T15:52:55.461Z,6.84
2022-11-28T15:55:25.651Z,6.85
2022-11-28T15:58:10.025Z,6.91
2022-11-28T16:00:40.044Z,6.87
2022-11-28T16:03:10.868Z,6.83
2022-11-28T16:05:39.957Z,6.89
2022-11-28T16:08:18.244Z,6.87
2022-11-28T16:10:47.642Z,6.87
2022-11-28T16:13:17.269Z,6.90
2022-11-28T16:15:50.476Z,6.83
2022-11-28T16:18:19.048Z,6.87
2022-11-28T16:20:47.236Z,6.92
2022-11-28T16:23:19.323Z,6.95
2022-11-28T16:25:58.996Z,6.88
2022-11-28T16:28:31.652Z,6.95
2022-11-28T16:30:59.939Z,6.88
2022-11-28T16:33:41.145Z,6.90
2022-11-28T16:36:17.922Z,6.90
2022-11-28T16:38:47.125Z,6.93
2022-11-28T16:41:21.592Z,6.90
2022-11-28T16:43:51.024Z,6.92
2022-11-28T16:46:20.927Z,6.94
2022-11-28T16:48:50.027Z,6.94
2022-11-28T16:51:37.357Z,7.05
2022-11-28T16:54:23.178Z,6.94
2022-11-28T16:56:57.440Z,7.03
2022-11-28T16:59:25.967Z,7.01
2022-11-28T17:01:54.555Z,7.01
2022-11-28T17:04:23.455Z,7.03
2022-11-28T17:06:52.112Z,7.04
2022-11-28T17:09:20.354Z,7.06
2022-11-28T17:11:51.816Z,7.04
2022-11-28T17:14:21.074Z,7.01
2022-11-28T17:16:49.238Z,6.97
2022-11-28T17:19:17.570Z,7.02
2022-11-28T17:21:46.325Z,7.04
2022-11-28T17:24:18.778Z,7.03
2022-11-28T17:26:46.918Z,7.04
2022-11-28T17:29:15.760Z,7.07
2022-11-28T17:31:46.792Z,7.05
2022-11-28T17:34:16.303Z,7.04
2022-11-28T17:36:44.345Z,7.09
2022-11-28T17:39:12.600Z,7.12
2022-11-28T17:41:40.782Z,7.08
2022-11-28T17:44:15.425Z,7.06
2022-11-28T17:46:44.896Z,7.05
2022-11-28T17:49:12.661Z,7.08
2022-11-28T17:51:40.653Z,7.11
2022-11-28T17:54:08.478Z,7.14
2022-11-28T17:56:36.321Z,7.17
2022-11-28T17:59:04.536Z,7.14
2022-11-28T18:01:32.438Z,7.18
2022-11-28T18:04:01.613Z,7.14
2022-11-28T18:06:29.488Z,7.18
2022-11-28T18:08:58.760Z,7.18
2022-11-28T18:11:27.919Z,7.22
2022-11-28T18:13:55.755Z,7.19
2022-11-28T18:16:25.450Z,7.17
2022-11-28T18:18:53.320Z,7.16
2022-11-28T18:21:22.621Z,7.20
2022-11-28T18:23:50.810Z,7.19
2022-11-28T18:26:20.248Z,7.20
2022-11-28T18:28:48.094Z,7.22
2022-11-28T18:31:18.368Z,7.22
2022-11-28T18:33:46.869Z,7.28
2022-11-28T18:36:16.136Z,7.22
2022-11-28T18:38:46.220Z,7.23
2022-11-28T18:41:15.070Z,7.23
2022-11-28T18:43:44.001Z,7.34
2022-11-28T18:46:13.184Z,7.26
2022-11-28T18:48:42.016Z,7.31
2022-11-28T18:51:13.220Z,7.30
2022-11-28T18:53:41.268Z,7.35
2022-11-28T18:56:16.840Z,7.30
2022-11-28T18:58:45.803Z,7.31
2022-11-28T19:01:14.795Z,7.34
2022-11-28T19:03:43.986Z,7.35
2022-11-28T19:06:13.906Z,7.33
2022-11-28T19:08:41.747Z,7.33
2022-11-28T19:11:14.315Z,7.30
2022-11-28T19:13:42.512Z,7.35
2022-11-28T19:16:10.974Z,7.35
2022-11-28T19:18:39.333Z,7.38
2022-11-28T19:21:07.314Z,7.37
2022-11-28T19:23:35.429Z,7.42
2022-11-28T19:26:04.151Z,7.38
2022-11-28T19:28:33.484Z,7.36
2022-11-28T19:31:05.351Z,7.38
2022-11-28T19:33:33.409Z,7.38
2022-11-28T19:36:01.930Z,7.40
2022-11-28T19:38:29.813Z,7.38
2022-11-28T19:40:58.122Z,7.40
2022-11-28T19:43:26.017Z,7.43
2022-11-28T19:45:58.550Z,7.44
2022-11-28T19:48:29.000Z,7.42
2022-11-28T19:50:56.899Z,7.45
2022-11-28T19:53:24.813Z,7.44
2022-11-28T19:55:53.986Z,7.47
2022-11-28T19:58:22.648Z,7.45
2022-11-28T20:00:50.587Z,7.47
2022-11-28T20:03:19.900Z,7.47
2022-11-28T20:05:47.849Z,7.46
2022-11-28T20:08:15.627Z,7.47
2022-11-28T20:10:43.499Z,7.50
2022-11-28T20:13:11.391Z,7.52
2022-11-28T20:15:39.352Z,7.55
2022-11-28T20:18:07.637Z,7.53
2022-11-28T20:20:37.496Z,7.51
2022-11-28T20:23:09.108Z,7.49
2022-11-28T20:25:37.084Z,7.47
2022-11-28T20:28:05.382Z,7.50
2022-11-28T20:30:37.192Z,7.49
2022-11-28T20:33:05.095Z,7.51
2022-11-28T20:35:33.067Z,7.54
2022-11-28T20:38:02.909Z,7.53
2022-11-28T20:40:30.945Z,7.52
2022-11-28T20:42:59.453Z,7.52
2022-11-28T20:45:27.299Z,7.53
2022-11-28T20:47:55.193Z,7.50
2022-11-28T20:50:28.075Z,7.52
2022-11-28T20:52:56.591Z,7.56
2022-11-28T20:55:25.876Z,7.55
2022-11-28T20:57:53.955Z,7.52
2022-11-28T21:00:26.344Z,7.54
2022-11-28T21:02:54.740Z,7.52
2022-11-28T21:05:22.587Z,7.51
2022-11-28T21:07:52.858Z,7.52
2022-11-28T21:10:21.194Z,7.53
2022-11-28T21:12:50.749Z,7.56
2022-11-28T21:15:21.159Z,7.59
2022-11-28T21:17:49.519Z,7.58
2022-11-28T21:20:17.356Z,7.61
2022-11-28T21:22:45.713Z,7.62
2022-11-28T21:25:13.583Z,7.63
2022-11-28T21:27:41.983Z,7.68
2022-11-28T21:30:12.154Z,7.67
2022-11-28T21:32:40.250Z,7.69
2022-11-28T21:35:09.400Z,7.68
2022-11-28T21:37:38.871Z,7.68
2022-11-28T21:40:07.806Z,7.70
2022-11-28T21:42:35.599Z,7.72
2022-11-28T21:45:03.695Z,7.73
2022-11-28T21:47:32.919Z,7.68
2022-11-28T21:50:02.471Z,7.69
2022-11-28T21:52:30.838Z,7.71
2022-11-28T21:54:58.817Z,7.70
2022-11-28T21:57:27.113Z,7.74
2022-11-28T21:59:57.021Z,7.81
2022-11-28T22:02:30.451Z,7.78
2022-11-28T22:05:00.224Z,7.81
2022-11-28T22:07:28.217Z,7.82
2022-11-28T22:09:56.194Z,7.87
2022-11-28T22:12:24.050Z,7.85
2022-11-28T22:14:51.885Z,7.86
2022-11-28T22:17:20.026Z,7.84
2022-11-28T22:19:47.862Z,7.83
2022-11-28T22:22:17.051Z,7.86
2022-11-28T22:24:44.991Z,7.87
2022-11-28T22:27:13.033Z,7.84
2022-11-28T22:29:41.051Z,7.82
2022-11-28T22:32:09.001Z,7.82
2022-11-28T22:34:39.937Z,7.84
2022-11-28T22:37:08.329Z,7.82
2022-11-28T22:39:38.828Z,7.81
2022-11-28T22:42:08.107Z,7.82
2022-11-28T22:44:38.094Z,7.85
2022-11-28T22:47:06.323Z,7.84
2022-11-28T22:49:34.168Z,7.84
2022-11-28T22:52:01.997Z,7.85
2022-11-28T22:54:30.033Z,7.85
2022-11-28T22:56:59.241Z,7.85
2022-11-28T22:59:27.726Z,7.86
2022-11-28T23:01:55.661Z,7.86
2022-11-28T23:04:23.824Z,7.88
2022-11-28T23:06:51.638Z,7.88
2022-11-28T23:09:19.448Z,7.87
2022-11-28T23:11:48.376Z,7.91
2022-11-28T23:14:17.561Z,7.92
2022-11-28T23:16:46.146Z,7.93
2022-11-28T23:19:15.258Z,7.95
2022-11-28T23:21:44.150Z,8.01
2022-11-28T23:24:13.757Z,8.06
2022-11-28T23:26:41.799Z,8.01
2022-11-28T23:29:09.824Z,8.02
2022-11-28T23:31:40.624Z,8.02
2022-11-28T23:34:09.061Z,7.97
2022-11-28T23:36:42.155Z,7.97
2022-11-28T23:39:11.822Z,7.97
2022-11-28T23:41:39.643Z,8.00
2022-11-28T23:44:07.483Z,8.02
2022-11-28T23:46:35.536Z,8.00
2022-11-28T23:49:05.630Z,8.02
2022-11-28T23:51:34.003Z,8.01
2022-11-28T23:54:01.906Z,8.00
2022-11-28T23:56:30.704Z,7.98
2022-11-28T23:58:58.618Z,7.95
